sensor_id;sensor_type;location;lat;lon;timestamp;temperature;humidity
31515;DHT22;40526;52.088;17.020;2023-04-24T00:02:15;13.00;99.90
31515;DHT22;40526;52.088;17.020;2023-04-24T00:07:17;13.00;99.90
31515;DHT22;40526;52.088;17.020;2023-04-24T00:17:24;13.10;99.90
31515;DHT22;40526;52.088;17.020;2023-04-24T00:22:27;13.10;99.90
31515;DHT22;40526;52.088;17.020;2023-04-24T00:27:31;13.00;99.90
31515;DHT22;40526;52.088;17.020;2023-04-24T00:42:40;12.70;99.90
31515;DHT22;40526;52.088;17.020;2023-04-24T00:47:42;12.70;99.90
31515;DHT22;40526;52.088;17.020;2023-04-24T00:52:44;12.70;99.90
31515;DHT22;40526;52.088;17.020;2023-04-24T00:57:48;12.80;99.90
31515;DHT22;40526;52.088;17.020;2023-04-24T01:12:59;12.60;99.90
31515;DHT22;40526;52.088;17.020;2023-04-24T01:23:05;12.50;99.90
31515;DHT22;40526;52.088;17.020;2023-04-24T01:33:10;12.50;99.90
31515;DHT22;40526;52.088;17.020;2023-04-24T01:38:14;12.50;99.90
31515;DHT22;40526;52.088;17.020;2023-04-24T01:43:16;12.40;99.90
31515;DHT22;40526;52.088;17.020;2023-04-24T01:48:19;12.30;99.90
31515;DHT22;40526;52.088;17.020;2023-04-24T01:53:23;12.20;99.90
31515;DHT22;40526;52.088;17.020;2023-04-24T02:08:34;12.10;99.90
31515;DHT22;40526;52.088;17.020;2023-04-24T02:23:42;12.00;99.90
31515;DHT22;40526;52.088;17.020;2023-04-24T02:28:47;11.90;99.90
31515;DHT22;40526;52.088;17.020;2023-04-24T02:38:53;11.90;99.90
31515;DHT22;40526;52.088;17.020;2023-04-24T02:43:55;11.90;99.90
31515;DHT22;40526;52.088;17.020;2023-04-24T02:54:01;11.80;99.90
31515;DHT22;40526;52.088;17.020;2023-04-24T02:59:04;11.80;99.90
31515;DHT22;40526;52.088;17.020;2023-04-24T03:04:06;11.80;99.90
31515;DHT22;40526;52.088;17.020;2023-04-24T03:09:09;11.80;99.90
31515;DHT22;40526;52.088;17.020;2023-04-24T03:14:12;11.80;99.90
31515;DHT22;40526;52.088;17.020;2023-04-24T03:24:29;11.70;99.90
31515;DHT22;40526;52.088;17.020;2023-04-24T03:29:32;11.60;99.90
31515;DHT22;40526;52.088;17.020;2023-04-24T03:34:35;11.40;99.90
31515;DHT22;40526;52.088;17.020;2023-04-24T03:39:39;11.30;99.90
31515;DHT22;40526;52.088;17.020;2023-04-24T03:44:42;11.30;99.90
31515;DHT22;40526;52.088;17.020;2023-04-24T03:49:44;11.30;99.90
31515;DHT22;40526;52.088;17.020;2023-04-24T03:54:48;11.20;99.90
31515;DHT22;40526;52.088;17.020;2023-04-24T03:59:50;11.20;99.90
31515;DHT22;40526;52.088;17.020;2023-04-24T04:04:54;11.20;99.90
31515;DHT22;40526;52.088;17.020;2023-04-24T04:09:58;11.30;99.90
31515;DHT22;40526;52.088;17.020;2023-04-24T04:15:00;11.30;99.90
31515;DHT22;40526;52.088;17.020;2023-04-24T04:25:11;11.50;99.90
31515;DHT22;40526;52.088;17.020;2023-04-24T04:30:15;12.60;99.90
31515;DHT22;40526;52.088;17.020;2023-04-24T04:35:26;11.70;99.90
31515;DHT22;40526;52.088;17.020;2023-04-24T04:40:30;12.00;99.90
31515;DHT22;40526;52.088;17.020;2023-04-24T04:51:02;12.30;99.90
31515;DHT22;40526;52.088;17.020;2023-04-24T04:56:06;12.30;99.90
31515;DHT22;40526;52.088;17.020;2023-04-24T05:01:13;12.40;99.90
31515;DHT22;40526;52.088;17.020;2023-04-24T05:06:19;12.70;99.90
31515;DHT22;40526;52.088;17.020;2023-04-24T05:11:23;13.00;99.90
31515;DHT22;40526;52.088;17.020;2023-04-24T05:16:26;13.40;99.90
31515;DHT22;40526;52.088;17.020;2023-04-24T05:21:31;13.60;99.90
31515;DHT22;40526;52.088;17.020;2023-04-24T05:26:35;13.60;99.90
31515;DHT22;40526;52.088;17.020;2023-04-24T05:36:42;13.90;99.90
31515;DHT22;40526;52.088;17.020;2023-04-24T05:41:46;14.30;99.90
31515;DHT22;40526;52.088;17.020;2023-04-24T05:46:48;14.50;99.90
31515;DHT22;40526;52.088;17.020;2023-04-24T05:56:55;14.70;99.90
31515;DHT22;40526;52.088;17.020;2023-04-24T06:02:11;15.00;99.90
31515;DHT22;40526;52.088;17.020;2023-04-24T06:12:19;15.70;99.90
31515;DHT22;40526;52.088;17.020;2023-04-24T06:17:31;15.30;99.90
31515;DHT22;40526;52.088;17.020;2023-04-24T06:22:33;15.30;99.90
31515;DHT22;40526;52.088;17.020;2023-04-24T06:27:37;15.20;99.90
31515;DHT22;40526;52.088;17.020;2023-04-24T06:32:39;15.00;99.90
31515;DHT22;40526;52.088;17.020;2023-04-24T06:37:42;15.40;99.90
31515;DHT22;40526;52.088;17.020;2023-04-24T06:42:46;15.60;99.90
31515;DHT22;40526;52.088;17.020;2023-04-24T06:47:49;15.40;99.90
31515;DHT22;40526;52.088;17.020;2023-04-24T06:52:51;16.60;99.90
31515;DHT22;40526;52.088;17.020;2023-04-24T06:57:55;16.70;99.90
31515;DHT22;40526;52.088;17.020;2023-04-24T07:02:57;16.60;99.90
31515;DHT22;40526;52.088;17.020;2023-04-24T07:07:59;16.60;99.90
31515;DHT22;40526;52.088;17.020;2023-04-24T07:13:03;17.50;99.90
31515;DHT22;40526;52.088;17.020;2023-04-24T07:18:05;18.20;99.90
31515;DHT22;40526;52.088;17.020;2023-04-24T07:23:07;18.20;99.90
31515;DHT22;40526;52.088;17.020;2023-04-24T07:28:11;18.20;99.90
31515;DHT22;40526;52.088;17.020;2023-04-24T07:33:13;18.90;99.90
31515;DHT22;40526;52.088;17.020;2023-04-24T07:38:15;21.30;99.90
31515;DHT22;40526;52.088;17.020;2023-04-24T07:43:20;22.90;99.90
31515;DHT22;40526;52.088;17.020;2023-04-24T07:48:22;23.30;96.50
31515;DHT22;40526;52.088;17.020;2023-04-24T07:58:30;20.30;99.90
31515;DHT22;40526;52.088;17.020;2023-04-24T08:03:32;19.80;99.90
31515;DHT22;40526;52.088;17.020;2023-04-24T08:08:34;19.80;99.90
31515;DHT22;40526;52.088;17.020;2023-04-24T08:13:38;19.40;99.90
31515;DHT22;40526;52.088;17.020;2023-04-24T08:18:40;19.50;99.90
31515;DHT22;40526;52.088;17.020;2023-04-24T08:23:42;19.80;99.90
31515;DHT22;40526;52.088;17.020;2023-04-24T08:28:46;19.60;99.90
31515;DHT22;40526;52.088;17.020;2023-04-24T08:33:48;19.20;99.90
31515;DHT22;40526;52.088;17.020;2023-04-24T08:43:55;19.60;99.90
31515;DHT22;40526;52.088;17.020;2023-04-24T08:49:00;19.50;99.90
31515;DHT22;40526;52.088;17.020;2023-04-24T08:54:03;19.80;99.90
31515;DHT22;40526;52.088;17.020;2023-04-24T08:59:08;19.60;99.90
31515;DHT22;40526;52.088;17.020;2023-04-24T09:04:11;19.60;99.90
31515;DHT22;40526;52.088;17.020;2023-04-24T09:09:16;19.80;99.90
31515;DHT22;40526;52.088;17.020;2023-04-24T09:14:20;19.70;99.90
31515;DHT22;40526;52.088;17.020;2023-04-24T09:19:23;19.70;99.90
31515;DHT22;40526;52.088;17.020;2023-04-24T09:24:26;19.80;99.90
31515;DHT22;40526;52.088;17.020;2023-04-24T09:29:30;19.90;99.90
31515;DHT22;40526;52.088;17.020;2023-04-24T09:34:33;20.00;99.90
31515;DHT22;40526;52.088;17.020;2023-04-24T09:39:35;20.30;99.90
31515;DHT22;40526;52.088;17.020;2023-04-24T09:44:39;21.00;99.90
31515;DHT22;40526;52.088;17.020;2023-04-24T09:49:42;21.00;99.90
31515;DHT22;40526;52.088;17.020;2023-04-24T09:54:52;20.80;99.90
31515;DHT22;40526;52.088;17.020;2023-04-24T09:59:57;20.40;99.90
31515;DHT22;40526;52.088;17.020;2023-04-24T10:04:59;20.30;99.90
31515;DHT22;40526;52.088;17.020;2023-04-24T10:10:02;20.40;99.90
31515;DHT22;40526;52.088;17.020;2023-04-24T10:15:06;20.40;99.90
31515;DHT22;40526;52.088;17.020;2023-04-24T10:20:10;20.50;99.90
31515;DHT22;40526;52.088;17.020;2023-04-24T10:25:13;20.70;99.90
31515;DHT22;40526;52.088;17.020;2023-04-24T10:30:19;21.00;99.90
31515;DHT22;40526;52.088;17.020;2023-04-24T10:35:22;21.30;99.90
31515;DHT22;40526;52.088;17.020;2023-04-24T10:40:30;20.70;99.90
31515;DHT22;40526;52.088;17.020;2023-04-24T10:45:34;20.70;99.90
31515;DHT22;40526;52.088;17.020;2023-04-24T10:50:44;20.50;99.90
31515;DHT22;40526;52.088;17.020;2023-04-24T10:55:48;20.60;99.90
31515;DHT22;40526;52.088;17.020;2023-04-24T11:00:59;20.50;99.90
31515;DHT22;40526;52.088;17.020;2023-04-24T11:06:02;20.30;99.90
31515;DHT22;40526;52.088;17.020;2023-04-24T11:11:09;19.60;99.90
31515;DHT22;40526;52.088;17.020;2023-04-24T11:16:14;19.10;99.90
31515;DHT22;40526;52.088;17.020;2023-04-24T11:26:22;18.40;99.90
31515;DHT22;40526;52.088;17.020;2023-04-24T11:31:37;18.30;99.90
31515;DHT22;40526;52.088;17.020;2023-04-24T11:41:43;18.00;99.90
31515;DHT22;40526;52.088;17.020;2023-04-24T11:46:47;17.90;99.90
31515;DHT22;40526;52.088;17.020;2023-04-24T11:51:49;18.10;99.90
31515;DHT22;40526;52.088;17.020;2023-04-24T11:56:51;18.50;99.90
31515;DHT22;40526;52.088;17.020;2023-04-24T12:01:56;19.10;99.90
31515;DHT22;40526;52.088;17.020;2023-04-24T12:17:05;19.60;99.90
31515;DHT22;40526;52.088;17.020;2023-04-24T12:22:07;20.10;99.90
31515;DHT22;40526;52.088;17.020;2023-04-24T12:27:19;20.10;99.90
31515;DHT22;40526;52.088;17.020;2023-04-24T12:32:23;20.00;99.90
31515;DHT22;40526;52.088;17.020;2023-04-24T12:37:26;19.90;99.90
31515;DHT22;40526;52.088;17.020;2023-04-24T12:42:35;20.10;99.90
31515;DHT22;40526;52.088;17.020;2023-04-24T12:47:40;20.10;99.90
31515;DHT22;40526;52.088;17.020;2023-04-24T12:52:44;19.70;99.90
31515;DHT22;40526;52.088;17.020;2023-04-24T13:02:50;20.10;99.90
31515;DHT22;40526;52.088;17.020;2023-04-24T13:12:56;20.50;99.90
31515;DHT22;40526;52.088;17.020;2023-04-24T13:18:00;19.90;99.90
31515;DHT22;40526;52.088;17.020;2023-04-24T13:23:02;19.60;99.90
31515;DHT22;40526;52.088;17.020;2023-04-24T13:33:08;18.50;99.90
31515;DHT22;40526;52.088;17.020;2023-04-24T13:43:13;17.80;99.90
31515;DHT22;40526;52.088;17.020;2023-04-24T13:48:17;17.70;99.90
31515;DHT22;40526;52.088;17.020;2023-04-24T13:53:20;17.60;99.90
31515;DHT22;40526;52.088;17.020;2023-04-24T13:58:22;17.40;99.90
31515;DHT22;40526;52.088;17.020;2023-04-24T14:03:26;16.90;99.90
31515;DHT22;40526;52.088;17.020;2023-04-24T14:13:33;15.70;99.90
31515;DHT22;40526;52.088;17.020;2023-04-24T14:18:37;15.00;99.90
31515;DHT22;40526;52.088;17.020;2023-04-24T14:23:45;14.60;99.90
31515;DHT22;40526;52.088;17.020;2023-04-24T14:28:47;14.20;99.90
31515;DHT22;40526;52.088;17.020;2023-04-24T14:33:51;14.20;99.90
31515;DHT22;40526;52.088;17.020;2023-04-24T14:49:02;15.10;99.90
31515;DHT22;40526;52.088;17.020;2023-04-24T14:54:05;15.10;99.90
31515;DHT22;40526;52.088;17.020;2023-04-24T14:59:09;15.10;99.90
31515;DHT22;40526;52.088;17.020;2023-04-24T15:04:13;15.00;99.90
31515;DHT22;40526;52.088;17.020;2023-04-24T15:09:15;14.90;99.90
31515;DHT22;40526;52.088;17.020;2023-04-24T15:14:18;15.00;99.90
31515;DHT22;40526;52.088;17.020;2023-04-24T15:19:22;14.80;99.90
31515;DHT22;40526;52.088;17.020;2023-04-24T15:24:24;14.40;99.90
31515;DHT22;40526;52.088;17.020;2023-04-24T15:29:26;14.20;99.90
31515;DHT22;40526;52.088;17.020;2023-04-24T15:34:30;14.00;99.90
31515;DHT22;40526;52.088;17.020;2023-04-24T15:39:32;14.00;99.90
31515;DHT22;40526;52.088;17.020;2023-04-24T15:44:35;14.00;99.90
31515;DHT22;40526;52.088;17.020;2023-04-24T15:49:38;13.90;99.90
31515;DHT22;40526;52.088;17.020;2023-04-24T15:54:40;13.90;99.90
31515;DHT22;40526;52.088;17.020;2023-04-24T15:59:43;13.90;99.90
31515;DHT22;40526;52.088;17.020;2023-04-24T16:04:48;13.90;99.90
31515;DHT22;40526;52.088;17.020;2023-04-24T16:09:51;13.80;99.90
31515;DHT22;40526;52.088;17.020;2023-04-24T16:14:53;13.80;99.90
31515;DHT22;40526;52.088;17.020;2023-04-24T16:19:57;13.80;99.90
31515;DHT22;40526;52.088;17.020;2023-04-24T16:30:01;13.80;99.90
31515;DHT22;40526;52.088;17.020;2023-04-24T16:35:05;13.80;99.90
31515;DHT22;40526;52.088;17.020;2023-04-24T16:40:08;13.90;99.90
31515;DHT22;40526;52.088;17.020;2023-04-24T16:45:12;13.90;99.90
31515;DHT22;40526;52.088;17.020;2023-04-24T16:50:15;13.80;99.90
31515;DHT22;40526;52.088;17.020;2023-04-24T16:55:17;13.80;99.90
31515;DHT22;40526;52.088;17.020;2023-04-24T17:00:20;13.70;99.90
31515;DHT22;40526;52.088;17.020;2023-04-24T17:05:23;13.60;99.90
31515;DHT22;40526;52.088;17.020;2023-04-24T17:10:25;13.30;99.90
31515;DHT22;40526;52.088;17.020;2023-04-24T17:20:32;13.10;99.90
31515;DHT22;40526;52.088;17.020;2023-04-24T17:25:34;13.10;99.90
31515;DHT22;40526;52.088;17.020;2023-04-24T17:35:40;12.90;99.90
31515;DHT22;40526;52.088;17.020;2023-04-24T17:40:43;12.80;99.90
31515;DHT22;40526;52.088;17.020;2023-04-24T17:45:46;12.70;99.90
31515;DHT22;40526;52.088;17.020;2023-04-24T17:50:50;12.60;99.90
31515;DHT22;40526;52.088;17.020;2023-04-24T17:55:52;12.50;99.90
31515;DHT22;40526;52.088;17.020;2023-04-24T18:00:57;12.40;99.90
31515;DHT22;40526;52.088;17.020;2023-04-24T18:06:01;12.50;99.90
31515;DHT22;40526;52.088;17.020;2023-04-24T18:11:03;12.40;99.90
31515;DHT22;40526;52.088;17.020;2023-04-24T18:16:05;12.30;99.90
31515;DHT22;40526;52.088;17.020;2023-04-24T18:21:08;12.20;99.90
31515;DHT22;40526;52.088;17.020;2023-04-24T18:26:11;12.10;99.90
31515;DHT22;40526;52.088;17.020;2023-04-24T18:31:16;12.00;99.90
31515;DHT22;40526;52.088;17.020;2023-04-24T18:36:20;11.90;99.90
31515;DHT22;40526;52.088;17.020;2023-04-24T18:41:22;11.80;99.90
31515;DHT22;40526;52.088;17.020;2023-04-24T18:46:24;11.80;99.90
31515;DHT22;40526;52.088;17.020;2023-04-24T18:51:28;8.70;99.90
31515;DHT22;40526;52.088;17.020;2023-04-24T18:56:30;11.80;99.90
31515;DHT22;40526;52.088;17.020;2023-04-24T19:01:33;11.80;99.90
31515;DHT22;40526;52.088;17.020;2023-04-24T19:06:36;11.80;99.90
31515;DHT22;40526;52.088;17.020;2023-04-24T19:11:39;11.80;99.90
31515;DHT22;40526;52.088;17.020;2023-04-24T19:16:41;11.70;99.90
31515;DHT22;40526;52.088;17.020;2023-04-24T19:21:45;11.70;99.90
31515;DHT22;40526;52.088;17.020;2023-04-24T19:26:48;11.60;99.90
31515;DHT22;40526;52.088;17.020;2023-04-24T19:31:50;11.60;99.90
31515;DHT22;40526;52.088;17.020;2023-04-24T19:36:55;11.60;99.90
31515;DHT22;40526;52.088;17.020;2023-04-24T19:41:57;11.50;99.90
31515;DHT22;40526;52.088;17.020;2023-04-24T19:52:06;11.40;99.90
31515;DHT22;40526;52.088;17.020;2023-04-24T19:57:08;11.20;99.90
31515;DHT22;40526;52.088;17.020;2023-04-24T20:02:10;11.10;99.90
31515;DHT22;40526;52.088;17.020;2023-04-24T20:07:15;11.00;99.90
31515;DHT22;40526;52.088;17.020;2023-04-24T20:17:20;11.00;99.90
31515;DHT22;40526;52.088;17.020;2023-04-24T20:22:24;11.00;99.90
31515;DHT22;40526;52.088;17.020;2023-04-24T20:27:26;10.90;99.90
31515;DHT22;40526;52.088;17.020;2023-04-24T20:32:30;10.80;99.90
31515;DHT22;40526;52.088;17.020;2023-04-24T20:37:34;10.80;99.90
31515;DHT22;40526;52.088;17.020;2023-04-24T20:47:39;10.70;99.90
31515;DHT22;40526;52.088;17.020;2023-04-24T20:52:43;10.70;99.90
31515;DHT22;40526;52.088;17.020;2023-04-24T20:57:45;10.50;99.90
31515;DHT22;40526;52.088;17.020;2023-04-24T21:02:47;10.40;99.90
31515;DHT22;40526;52.088;17.020;2023-04-24T21:07:51;10.20;99.90
31515;DHT22;40526;52.088;17.020;2023-04-24T21:12:55;10.10;99.90
31515;DHT22;40526;52.088;17.020;2023-04-24T21:17:57;10.10;99.90
31515;DHT22;40526;52.088;17.020;2023-04-24T21:23:01;10.10;99.90
31515;DHT22;40526;52.088;17.020;2023-04-24T21:28:04;10.10;99.90
31515;DHT22;40526;52.088;17.020;2023-04-24T21:33:06;9.30;99.90
31515;DHT22;40526;52.088;17.020;2023-04-24T21:38:10;10.30;99.90
31515;DHT22;40526;52.088;17.020;2023-04-24T21:48:15;10.40;99.90
31515;DHT22;40526;52.088;17.020;2023-04-24T21:53:19;10.40;99.90
31515;DHT22;40526;52.088;17.020;2023-04-24T21:58:21;10.40;99.90
31515;DHT22;40526;52.088;17.020;2023-04-24T22:03:23;10.40;99.90
31515;DHT22;40526;52.088;17.020;2023-04-24T22:08:27;10.40;99.90
31515;DHT22;40526;52.088;17.020;2023-04-24T22:13:29;10.40;99.90
31515;DHT22;40526;52.088;17.020;2023-04-24T22:18:32;10.30;99.90
31515;DHT22;40526;52.088;17.020;2023-04-24T22:23:35;10.00;99.90
31515;DHT22;40526;52.088;17.020;2023-04-24T22:28:38;10.20;99.90
31515;DHT22;40526;52.088;17.020;2023-04-24T22:38:44;10.00;99.90
31515;DHT22;40526;52.088;17.020;2023-04-24T22:43:47;10.00;99.90
31515;DHT22;40526;52.088;17.020;2023-04-24T22:53:54;9.80;99.90
31515;DHT22;40526;52.088;17.020;2023-04-24T22:58:56;9.70;99.90
31515;DHT22;40526;52.088;17.020;2023-04-24T23:03:59;9.70;99.90
31515;DHT22;40526;52.088;17.020;2023-04-24T23:09:02;9.60;99.90
31515;DHT22;40526;52.088;17.020;2023-04-24T23:14:05;9.50;99.90
31515;DHT22;40526;52.088;17.020;2023-04-24T23:19:09;9.40;99.90
31515;DHT22;40526;52.088;17.020;2023-04-24T23:24:12;9.70;99.90
31515;DHT22;40526;52.088;17.020;2023-04-24T23:29:15;9.20;99.90
31515;DHT22;40526;52.088;17.020;2023-04-24T23:34:17;9.00;99.90
31515;DHT22;40526;52.088;17.020;2023-04-24T23:39:21;8.90;99.90
31515;DHT22;40526;52.088;17.020;2023-04-24T23:49:26;8.90;99.90
31515;DHT22;40526;52.088;17.020;2023-04-24T23:54:29;8.80;99.90
